Time;durP1;ratioP1;P1;durP2;ratioP2;P2;SDS_P1;SDS_P2;PMS_P1;PMS_P2;Temp;Humidity;BMP_temperature;BMP_pressure;BME280_temperature;BME280_humidity;BME280_pressure;Samples;Min_cycle;Max_cycle;Signal;HPM_P1;HPM_P2
2023/08/25 00:01:24;;;;;;;21.52;19.33;;;22.60;99.90;;;;;;5042977;28;20033;-91
2023/08/25 00:03:50;;;;;;;24.00;21.67;;;22.60;99.90;;;;;;5039608;28;20123;-91
2023/08/25 00:06:16;;;;;;;22.05;19.80;;;22.40;99.90;;;;;;5054111;28;20037;-90
2023/08/25 00:08:43;;;;;;;21.10;18.98;;;22.40;99.90;;;;;;5037550;28;20036;-90
2023/08/25 00:11:10;;;;;;;21.35;19.27;;;21.80;99.90;;;;;;5034195;28;20047;-90
2023/08/25 00:13:36;;;;;;;21.00;18.85;;;22.50;99.90;;;;;;5038043;28;20091;-91
2023/08/25 00:16:05;;;;;;;22.60;20.23;;;22.50;99.90;;;;;;5037286;28;20033;-89
2023/08/25 00:18:31;;;;;;;20.90;19.00;;;22.10;99.90;;;;;;5038146;28;20044;-91
2023/08/25 00:20:57;;;;;;;21.90;19.85;;;22.30;99.90;;;;;;5024188;28;20036;-90
2023/08/25 00:23:23;;;;;;;22.92;20.67;;;22.40;99.90;;;;;;5040790;28;20119;-90
2023/08/25 00:25:48;;;;;;;21.77;19.58;;;22.40;99.90;;;;;;5042514;28;20049;-90
2023/08/25 00:28:14;;;;;;;25.63;23.02;;;22.30;99.90;;;;;;5030078;28;20086;-91
2023/08/25 00:30:40;;;;;;;22.48;20.38;;;20.00;99.90;;;;;;5031711;28;20119;-90
2023/08/25 00:33:06;;;;;;;25.05;22.42;;;22.00;99.90;;;;;;5059736;28;20028;-90
2023/08/25 00:35:32;;;;;;;24.23;21.73;;;22.20;99.90;;;;;;5028730;28;20040;-90
2023/08/25 00:37:58;;;;;;;25.52;22.77;;;22.30;99.90;;;;;;5057021;28;20063;-92
2023/08/25 00:40:24;;;;;;;29.70;25.90;;;22.10;99.90;;;;;;5056335;28;20373;-91
2023/08/25 00:42:50;;;;;;;24.75;22.42;;;22.10;99.90;;;;;;5038103;28;20032;-91
2023/08/25 00:45:16;;;;;;;26.75;24.02;;;;;;;;;;5018480;28;20071;-91
2023/08/25 00:47:42;;;;;;;28.60;25.73;;;22.30;99.90;;;;;;5029517;28;20052;-92
2023/08/25 00:50:09;;;;;;;26.98;24.20;;;22.30;99.90;;;;;;5048819;28;20031;-91
2023/08/25 00:52:38;;;;;;;28.73;25.85;;;22.40;99.90;;;;;;5038988;28;20048;-90
2023/08/25 00:55:05;;;;;;;31.63;27.70;;;22.10;99.90;;;;;;5049946;28;20133;-92
2023/08/25 00:57:34;;;;;;;28.38;25.52;;;22.30;99.90;;;;;;5051119;28;20048;-92
2023/08/25 01:00:00;;;;;;;30.95;27.30;;;23.90;99.90;;;;;;5055352;28;20035;-92
2023/08/25 01:02:25;;;;;;;29.48;26.55;;;22.40;99.90;;;;;;5072650;28;20043;-94
2023/08/25 01:04:51;;;;;;;31.60;28.08;;;22.40;99.90;;;;;;5056986;28;20369;-90
2023/08/25 01:07:17;;;;;;;31.05;27.90;;;22.40;99.90;;;;;;5038809;28;20062;-91
2023/08/25 01:09:43;;;;;;;28.85;25.75;;;22.00;99.90;;;;;;5058984;28;20031;-91
2023/08/25 01:12:40;;;;;;;31.35;28.15;;;22.40;99.90;;;;;;5051222;28;20040;-90
2023/08/25 01:15:26;;;;;;;29.88;26.75;;;22.50;99.90;;;;;;5059900;28;20599;-93
2023/08/25 01:18:32;;;;;;;31.48;28.23;;;24.70;99.90;;;;;;5010484;28;20036;-93
2023/08/25 01:21:00;;;;;;;29.70;26.67;;;22.70;99.90;;;;;;5043187;28;20068;-92
2023/08/25 01:23:38;;;;;;;30.20;26.98;;;22.80;99.90;;;;;;5049890;28;20043;-91
2023/08/25 01:26:05;;;;;;;32.95;28.25;;;22.80;99.90;;;;;;5046963;28;20071;-90
2023/08/25 01:28:31;;;;;;;29.73;26.73;;;22.60;99.90;;;;;;5050261;28;20051;-90
2023/08/25 01:30:59;;;;;;;31.30;28.00;;;22.70;99.90;;;;;;5032501;28;20045;-91
2023/08/25 01:33:30;;;;;;;30.33;27.13;;;22.60;99.90;;;;;;5034327;28;20105;-90
2023/08/25 01:35:56;;;;;;;31.27;28.05;;;22.80;99.90;;;;;;5048568;28;20108;-91
2023/08/25 01:38:54;;;;;;;32.45;28.70;;;22.60;99.90;;;;;;5044479;28;20119;-92
2023/08/25 01:41:29;;;;;;;30.73;27.17;;;23.00;99.90;;;;;;5050568;28;20040;-91
2023/08/25 01:43:56;;;;;;;33.67;29.80;;;21.30;99.90;;;;;;5050894;28;20048;-91
2023/08/25 01:46:23;;;;;;;32.28;28.83;;;22.80;99.90;;;;;;5029703;28;20048;-91
2023/08/25 01:48:52;;;;;;;30.80;27.52;;;22.60;99.90;;;;;;5054118;28;20562;-91
2023/08/25 01:51:19;;;;;;;31.85;28.52;;;22.70;99.90;;;;;;5050459;28;20044;-92
2023/08/25 01:53:46;;;;;;;34.03;29.83;;;22.60;99.90;;;;;;5030406;28;20052;-92
2023/08/25 01:56:12;;;;;;;32.17;28.95;;;22.60;99.90;;;;;;5021163;28;20670;-91
2023/08/25 01:58:38;;;;;;;34.38;30.60;;;22.70;99.90;;;;;;5053716;28;20036;-91
2023/08/25 02:01:04;;;;;;;32.65;29.17;;;22.30;99.90;;;;;;5020926;28;20040;-92
2023/08/25 02:03:30;;;;;;;34.65;31.02;;;22.50;99.90;;;;;;5015981;28;20469;-91
2023/08/25 02:05:55;;;;;;;33.80;30.20;;;22.20;99.90;;;;;;5026651;28;20037;-92
2023/08/25 02:08:21;;;;;;;36.50;32.55;;;22.50;99.90;;;;;;5033195;28;20036;-91
2023/08/25 02:10:53;;;;;;;35.45;31.08;;;22.20;99.90;;;;;;5043663;28;20083;-91
2023/08/25 02:13:19;;;;;;;35.97;32.15;;;22.30;99.90;;;;;;5021293;28;20450;-91
2023/08/25 02:15:49;;;;;;;35.85;31.80;;;22.00;99.90;;;;;;5058092;28;20040;-90
2023/08/25 02:18:15;;;;;;;35.85;31.73;;;22.10;99.90;;;;;;5037806;28;20120;-91
2023/08/25 02:20:40;;;;;;;36.05;32.15;;;22.00;99.90;;;;;;5037781;28;20119;-92
2023/08/25 02:23:07;;;;;;;35.97;32.22;;;21.90;99.90;;;;;;5047517;28;20040;-91
2023/08/25 02:25:34;;;;;;;39.30;33.10;;;22.40;99.90;;;;;;5057324;28;20048;-93
2023/08/25 02:28:00;;;;;;;38.30;33.30;;;22.30;99.90;;;;;;5033535;28;20162;-92
2023/08/25 02:30:26;;;;;;;35.60;31.73;;;21.90;99.90;;;;;;5057100;28;20040;-90
2023/08/25 02:32:52;;;;;;;38.40;32.63;;;21.90;99.90;;;;;;5043776;28;20044;-91
2023/08/25 02:35:18;;;;;;;38.67;31.88;;;21.90;99.90;;;;;;5038097;28;20029;-92
2023/08/25 02:38:04;;;;;;;40.25;32.25;;;19.90;99.90;;;;;;5054075;28;20040;-91
2023/08/25 02:40:31;;;;;;;36.20;31.10;;;21.90;99.90;;;;;;5048907;28;20036;-90
2023/08/25 02:42:59;;;;;;;37.75;31.65;;;22.10;99.90;;;;;;5047970;28;20040;-91
2023/08/25 02:45:26;;;;;;;37.65;31.35;;;21.80;99.90;;;;;;5054685;28;20043;-90
2023/08/25 02:47:52;;;;;;;36.90;32.90;;;21.90;99.90;;;;;;5041150;28;20051;-92
2023/08/25 02:50:20;;;;;;;39.70;33.40;;;22.00;99.90;;;;;;5074152;28;20044;-93
2023/08/25 02:52:45;;;;;;;39.13;32.47;;;22.00;99.90;;;;;;5060148;28;20652;-90
2023/08/25 02:55:16;;;;;;;37.97;33.05;;;21.70;99.90;;;;;;5050450;28;20111;-91
2023/08/25 02:57:42;;;;;;;38.72;34.33;;;22.00;99.90;;;;;;5041087;28;20067;-90
2023/08/25 03:00:11;;;;;;;37.67;33.13;;;21.90;99.90;;;;;;5038656;28;20036;-93
2023/08/25 03:02:37;;;;;;;38.63;33.45;;;21.90;99.90;;;;;;5057526;28;20032;-91
2023/08/25 03:05:03;;;;;;;39.85;34.33;;;22.00;99.90;;;;;;5034823;28;20564;-93
2023/08/25 03:07:29;;;;;;;39.58;33.83;;;22.00;99.90;;;;;;5019602;28;20041;-93
2023/08/25 03:09:55;;;;;;;44.47;34.42;;;21.80;99.90;;;;;;5057493;28;20036;-91
2023/08/25 03:12:21;;;;;;;40.97;34.22;;;22.10;99.90;;;;;;5052842;28;20055;-90
2023/08/25 03:14:47;;;;;;;39.30;35.08;;;22.30;99.90;;;;;;5057692;28;20119;-91
2023/08/25 03:17:13;;;;;;;39.45;35.10;;;22.10;99.90;;;;;;5040526;28;20044;-92
2023/08/25 03:19:38;;;;;;;37.90;33.80;;;22.10;99.90;;;;;;5024510;28;20036;-90
2023/08/25 03:22:05;;;;;;;37.08;33.10;;;22.10;99.90;;;;;;5053885;28;20064;-90
2023/08/25 03:24:41;;;;;;;37.17;32.10;;;22.20;99.90;;;;;;5033490;28;20049;-92
2023/08/25 03:27:07;;;;;;;40.33;34.33;;;22.40;99.90;;;;;;5022034;28;20394;-91
2023/08/25 03:29:33;;;;;;;41.10;34.58;;;22.20;99.90;;;;;;5037075;28;20048;-92
2023/08/25 03:32:00;;;;;;;41.65;34.60;;;22.30;99.90;;;;;;5037580;28;20120;-92
2023/08/25 03:34:25;;;;;;;41.67;34.00;;;22.10;99.90;;;;;;5021183;28;20400;-90
2023/08/25 03:36:51;;;;;;;41.42;34.35;;;22.10;99.90;;;;;;5037224;28;20040;-92
2023/08/25 03:39:18;;;;;;;41.67;34.83;;;24.20;99.90;;;;;;5036535;28;20381;-91
2023/08/25 03:41:45;;;;;;;40.47;32.22;;;22.10;99.90;;;;;;5040931;28;20697;-91
2023/08/25 03:44:11;;;;;;;43.05;37.40;;;22.60;99.90;;;;;;5034258;28;20097;-91
2023/08/25 03:46:37;;;;;;;45.90;36.92;;;22.10;99.90;;;;;;5042515;28;20131;-90
2023/08/25 03:49:08;;;;;;;38.20;34.10;;;22.00;99.90;;;;;;5040920;28;20028;-90
2023/08/25 03:51:49;;;;;;;37.45;32.63;;;22.40;99.90;;;;;;5034244;28;20068;-90
2023/08/25 03:54:22;;;;;;;40.38;33.75;;;22.50;99.90;;;;;;5017434;28;20033;-92
2023/08/25 03:56:57;;;;;;;38.03;32.80;;;22.00;99.90;;;;;;5016614;28;20033;-90
2023/08/25 03:59:31;;;;;;;39.90;33.97;;;22.40;99.90;;;;;;5010512;28;20044;-90
2023/08/25 04:01:57;;;;;;;43.20;35.70;;;22.50;99.90;;;;;;5022165;28;20036;-90
2023/08/25 04:04:23;;;;;;;40.35;34.80;;;22.10;99.90;;;;;;5040803;28;20037;-92
2023/08/25 04:06:49;;;;;;;42.50;35.20;;;22.30;99.90;;;;;;5020997;28;20040;-90
2023/08/25 04:09:15;;;;;;;43.85;35.53;;;22.40;99.90;;;;;;5036410;28;20691;-91
2023/08/25 04:11:41;;;;;;;41.10;34.17;;;22.30;99.90;;;;;;5024804;28;20057;-90
2023/08/25 04:14:07;;;;;;;44.83;35.38;;;22.20;99.90;;;;;;5040322;28;20754;-92
2023/08/25 04:16:36;;;;;;;43.13;35.42;;;22.20;99.90;;;;;;5015573;28;20037;-92
2023/08/25 04:19:01;;;;;;;41.40;34.38;;;22.50;99.90;;;;;;5040551;28;20129;-92
2023/08/25 04:21:27;;;;;;;43.65;34.85;;;22.30;99.90;;;;;;5031292;28;20456;-90
2023/08/25 04:23:53;;;;;;;45.50;35.80;;;22.70;99.90;;;;;;5017665;28;20076;-91
2023/08/25 04:26:19;;;;;;;43.72;36.70;;;22.50;99.90;;;;;;5048655;28;20056;-91
2023/08/25 04:28:48;;;;;;;45.50;36.15;;;22.30;99.90;;;;;;5056029;28;20040;-92
2023/08/25 04:31:13;;;;;;;47.42;36.67;;;22.30;99.90;;;;;;5048964;28;20036;-90
2023/08/25 04:33:42;;;;;;;42.13;33.75;;;22.10;99.90;;;;;;5053222;28;20041;-90
2023/08/25 04:36:08;;;;;;;42.00;34.22;;;22.40;99.90;;;;;;5034598;28;20066;-91
2023/08/25 04:38:34;;;;;;;42.35;34.95;;;22.20;99.90;;;;;;5056720;28;20057;-90
2023/08/25 04:40:59;;;;;;;41.97;34.63;;;22.10;99.90;;;;;;5023254;28;20591;-89
2023/08/25 04:43:25;;;;;;;40.53;33.35;;;22.20;99.90;;;;;;5055424;28;20044;-89
2023/08/25 04:45:51;;;;;;;41.38;34.80;;;22.40;99.90;;;;;;5039760;28;20048;-90
2023/08/25 04:48:17;;;;;;;44.30;33.63;;;22.20;99.90;;;;;;5052587;28;20044;-90
2023/08/25 04:50:43;;;;;;;47.35;35.38;;;22.50;99.90;;;;;;5073163;28;20062;-90
2023/08/25 04:53:12;;;;;;;46.13;35.97;;;22.50;99.90;;;;;;5053128;28;20123;-90
2023/08/25 04:55:37;;;;;;;48.40;35.40;;;22.50;99.90;;;;;;5039676;28;20041;-91
2023/08/25 04:58:03;;;;;;;47.78;35.90;;;22.40;99.90;;;;;;5056200;28;20248;-90
2023/08/25 05:00:32;;;;;;;45.20;36.47;;;22.40;99.90;;;;;;5037073;28;20048;-89
2023/08/25 05:02:58;;;;;;;44.63;34.60;;;22.30;99.90;;;;;;5056427;28;20040;-89
2023/08/25 05:05:27;;;;;;;41.42;34.90;;;;;;;;;;5049048;28;20489;-90
2023/08/25 05:07:53;;;;;;;43.58;35.17;;;22.30;99.90;;;;;;5055843;28;20033;-89
2023/08/25 05:10:22;;;;;;;45.53;35.85;;;22.40;99.90;;;;;;5051069;28;20037;-90
2023/08/25 05:12:48;;;;;;;44.55;35.17;;;22.60;99.90;;;;;;5034068;28;20044;-90
2023/08/25 05:15:20;;;;;;;46.30;36.00;;;22.30;99.90;;;;;;5027239;28;20036;-89
2023/08/25 05:17:46;;;;;;;47.13;36.08;;;23.90;99.90;;;;;;5050169;28;20040;-91
2023/08/25 05:20:12;;;;;;;45.38;34.78;;;22.30;99.90;;;;;;5051463;28;20055;-89
2023/08/25 05:22:37;;;;;;;44.65;34.47;;;22.10;99.90;;;;;;5051836;28;20538;-90
2023/08/25 05:25:04;;;;;;;46.25;35.20;;;22.70;99.90;;;;;;5051430;28;20061;-90
2023/08/25 05:27:30;;;;;;;43.53;35.22;;;22.30;99.90;;;;;;5015937;28;20071;-91
2023/08/25 05:29:56;;;;;;;50.17;37.50;;;22.40;99.90;;;;;;5006762;28;20033;-91
2023/08/25 05:32:22;;;;;;;45.85;36.72;;;22.50;99.90;;;;;;5013076;28;20040;-91
2023/08/25 05:34:48;;;;;;;48.80;37.38;;;22.50;99.90;;;;;;5010930;28;20041;-89
2023/08/25 05:37:14;;;;;;;50.75;37.03;;;22.30;99.90;;;;;;5020353;28;20438;-89
2023/08/25 05:39:40;;;;;;;47.08;34.78;;;22.70;99.90;;;;;;5019531;28;20048;-90
2023/08/25 05:42:07;;;;;;;48.55;36.97;;;22.50;99.90;;;;;;5001298;28;20033;-90
2023/08/25 05:44:33;;;;;;;48.33;36.50;;;22.80;99.90;;;;;;5029549;28;20067;-89
2023/08/25 05:46:59;;;;;;;55.05;36.75;;;22.50;99.90;;;;;;5038327;28;20044;-89
2023/08/25 05:49:26;;;;;;;54.03;38.75;;;22.80;99.90;;;;;;5022961;28;20777;-89
2023/08/25 05:51:52;;;;;;;54.72;38.70;;;22.80;99.90;;;;;;4998109;28;20037;-90
2023/08/25 05:54:18;;;;;;;56.88;39.67;;;22.50;99.90;;;;;;5022878;28;20033;-91
2023/08/25 05:56:44;;;;;;;51.22;37.88;;;22.80;99.90;;;;;;5034288;28;20811;-88
2023/08/25 05:59:10;;;;;;;56.53;40.40;;;22.60;99.90;;;;;;5038255;28;20669;-90
2023/08/25 06:01:36;;;;;;;56.38;38.38;;;22.50;99.90;;;;;;5036386;28;20047;-90
2023/08/25 06:04:03;;;;;;;55.47;38.55;;;22.60;99.90;;;;;;5034196;28;20041;-90
2023/08/25 06:06:30;;;;;;;51.83;38.80;;;22.80;99.90;;;;;;5029012;28;20079;-89
2023/08/25 06:08:56;;;;;;;57.42;36.95;;;23.00;99.90;;;;;;5025112;28;20390;-90
2023/08/25 06:11:22;;;;;;;53.75;39.30;;;22.80;99.90;;;;;;5018539;28;20037;-90
2023/08/25 06:13:48;;;;;;;52.28;39.03;;;22.80;99.90;;;;;;5036322;28;20047;-90
2023/08/25 06:16:14;;;;;;;54.08;38.38;;;22.70;99.90;;;;;;5036709;28;20073;-89
2023/08/25 06:18:41;;;;;;;62.88;40.13;;;22.60;99.90;;;;;;5037626;28;20115;-89
2023/08/25 06:21:07;;;;;;;56.60;39.50;;;23.10;99.90;;;;;;5019603;28;20040;-90
2023/08/25 06:23:33;;;;;;;60.20;39.42;;;22.90;99.90;;;;;;5020030;28;20041;-91
2023/08/25 06:26:01;;;;;;;57.53;38.15;;;22.90;99.90;;;;;;5011745;28;20110;-90
2023/08/25 06:28:28;;;;;;;57.33;38.25;;;23.00;99.90;;;;;;5012410;28;20132;-90
2023/08/25 06:30:54;;;;;;;64.13;39.58;;;22.80;99.90;;;;;;5017465;28;20044;-90
2023/08/25 06:33:19;;;;;;;60.83;38.20;;;22.70;99.90;;;;;;5018678;28;20048;-91
2023/08/25 06:35:45;;;;;;;65.82;40.55;;;23.00;99.90;;;;;;5036619;28;20055;-89
2023/08/25 06:38:11;;;;;;;60.72;39.40;;;22.80;99.90;;;;;;5038218;28;20033;-90
2023/08/25 06:40:37;;;;;;;62.88;38.88;;;22.90;99.90;;;;;;5021671;28;20405;-90
2023/08/25 06:43:03;;;;;;;59.85;38.67;;;23.30;99.90;;;;;;5012105;28;20072;-89
2023/08/25 06:45:30;;;;;;;60.47;38.65;;;23.10;99.90;;;;;;5039568;28;20123;-89
2023/08/25 06:47:57;;;;;;;63.33;40.40;;;22.90;99.90;;;;;;5029489;28;20118;-89
2023/08/25 06:50:24;;;;;;;62.20;38.10;;;23.10;99.90;;;;;;5017274;28;20041;-89
2023/08/25 06:52:50;;;;;;;61.78;38.47;;;23.30;99.90;;;;;;5011540;28;20083;-89
2023/08/25 06:55:23;;;;;;;64.13;39.80;;;23.30;99.90;;;;;;5031142;28;20150;-89
2023/08/25 06:57:49;;;;;;;64.75;39.15;;;23.80;99.90;;;;;;5019407;28;20041;-89
2023/08/25 07:00:17;;;;;;;60.67;38.38;;;23.70;99.90;;;;;;5021319;28;20048;-89
2023/08/25 07:02:44;;;;;;;61.28;38.47;;;23.70;99.90;;;;;;5017909;28;20049;-89
2023/08/25 07:05:13;;;;;;;58.17;37.95;;;23.40;99.90;;;;;;5035949;28;20093;-89
2023/08/25 07:07:39;;;;;;;60.33;38.75;;;23.40;99.90;;;;;;5037701;28;20608;-90
2023/08/25 07:10:06;;;;;;;59.00;39.70;;;23.70;99.90;;;;;;5020435;28;20482;-90
2023/08/25 07:12:32;;;;;;;59.50;39.03;;;25.00;99.90;;;;;;5024657;28;20040;-90
2023/08/25 07:15:01;;;;;;;54.03;37.58;;;23.60;99.90;;;;;;5013042;28;20475;-89
2023/08/25 07:17:27;;;;;;;59.75;37.15;;;23.90;99.90;;;;;;5037528;28;20374;-91
2023/08/25 07:19:53;;;;;;;60.88;39.40;;;23.50;99.90;;;;;;5004283;28;20052;-90
2023/08/25 07:22:20;;;;;;;59.33;38.13;;;23.80;99.90;;;;;;5005960;28;20619;-89
2023/08/25 07:24:47;;;;;;;56.42;37.45;;;24.00;99.90;;;;;;5040679;28;20047;-89
2023/08/25 07:27:13;;;;;;;56.05;38.53;;;23.90;99.90;;;;;;5032329;28;20055;-89
2023/08/25 07:29:46;;;;;;;56.88;38.13;;;23.80;99.90;;;;;;5043830;28;20040;-90
2023/08/25 07:32:12;;;;;;;58.17;36.10;;;23.90;99.90;;;;;;5027051;28;20076;-89
2023/08/25 07:34:42;;;;;;;57.20;37.28;;;23.90;99.90;;;;;;5037366;28;20045;-89
2023/08/25 07:37:08;;;;;;;49.45;35.00;;;24.10;99.90;;;;;;5043341;28;20032;-89
2023/08/25 07:39:40;;;;;;;46.00;34.22;;;22.30;99.90;;;;;;5048119;28;20043;-89
2023/08/25 07:42:10;;;;;;;38.88;31.65;;;23.70;99.90;;;;;;5068557;28;20068;-91
2023/08/25 07:44:37;;;;;;;41.75;33.45;;;22.70;99.90;;;;;;5042079;28;20047;-91
2023/08/25 07:47:04;;;;;;;44.40;33.40;;;23.80;99.90;;;;;;5049453;28;20068;-89
2023/08/25 07:49:33;;;;;;;40.47;31.80;;;23.90;99.90;;;;;;5049042;28;20040;-89
2023/08/25 07:51:59;;;;;;;37.28;29.40;;;24.00;99.90;;;;;;5043429;28;20127;-89
2023/08/25 07:54:27;;;;;;;40.10;29.50;;;24.00;99.90;;;;;;5058933;28;20123;-89
2023/08/25 07:56:54;;;;;;;37.15;28.35;;;23.90;99.90;;;;;;5032627;28;20050;-90
2023/08/25 07:59:22;;;;;;;38.03;26.73;;;23.90;99.90;;;;;;5059554;28;20094;-90
2023/08/25 08:01:50;;;;;;;33.65;24.98;;;23.70;99.90;;;;;;5032075;28;20036;-90
2023/08/25 08:04:16;;;;;;;32.70;25.17;;;23.50;99.90;;;;;;5023725;28;20131;-90
2023/08/25 08:06:42;;;;;;;41.47;27.98;;;23.60;99.90;;;;;;5075375;28;20052;-90
2023/08/25 08:09:08;;;;;;;37.70;26.05;;;23.60;99.90;;;;;;5034970;28;20101;-88
2023/08/25 08:11:35;;;;;;;42.40;28.48;;;23.60;99.90;;;;;;5026556;28;20043;-90
2023/08/25 08:14:02;;;;;;;40.55;28.15;;;23.90;99.90;;;;;;5036787;28;20527;-89
2023/08/25 08:16:28;;;;;;;37.65;29.08;;;24.00;99.90;;;;;;5055811;28;20078;-89
2023/08/25 08:18:54;;;;;;;41.40;30.85;;;24.00;99.90;;;;;;5043575;28;20044;-90
2023/08/25 08:21:21;;;;;;;41.47;29.60;;;24.00;99.90;;;;;;5027414;28;20626;-89
2023/08/25 08:23:47;;;;;;;41.42;29.70;;;24.20;99.90;;;;;;5050008;28;20033;-88
2023/08/25 08:26:13;;;;;;;39.97;29.70;;;23.40;99.90;;;;;;5025172;28;20053;-91
2023/08/25 08:28:39;;;;;;;43.13;31.30;;;24.20;99.90;;;;;;5035264;28;20033;-90
2023/08/25 08:31:07;;;;;;;39.97;29.45;;;22.80;99.90;;;;;;5013161;28;20128;-90
2023/08/25 08:33:34;;;;;;;37.95;29.48;;;24.60;99.90;;;;;;5049465;28;20044;-92
2023/08/25 08:36:07;;;;;;;38.67;28.73;;;24.60;99.90;;;;;;5014150;28;20046;-91
2023/08/25 08:38:33;;;;;;;36.78;28.98;;;25.10;99.90;;;;;;5039960;28;20036;-90
2023/08/25 08:41:10;;;;;;;39.75;27.80;;;24.90;99.90;;;;;;5042706;28;20120;-89
2023/08/25 08:43:41;;;;;;;40.05;29.23;;;25.00;99.90;;;;;;5058485;28;20516;-90
2023/08/25 08:46:07;;;;;;;29.83;25.33;;;25.10;99.90;;;;;;5058867;28;20038;-90
2023/08/25 08:48:35;;;;;;;26.98;23.00;;;24.80;99.90;;;;;;5033727;28;20485;-89
2023/08/25 08:51:02;;;;;;;25.45;22.67;;;24.70;99.90;;;;;;5049039;28;20090;-90
2023/08/25 08:53:29;;;;;;;29.00;23.13;;;24.70;99.90;;;;;;5047231;28;20042;-89
2023/08/25 08:56:02;;;;;;;27.85;21.98;;;24.70;99.90;;;;;;5048992;28;20078;-90
2023/08/25 08:58:28;;;;;;;23.77;19.58;;;24.70;99.90;;;;;;5026964;28;20036;-90
2023/08/25 09:00:56;;;;;;;21.50;18.45;;;24.70;99.90;;;;;;5050297;28;20036;-90
2023/08/25 09:03:31;;;;;;;32.17;19.77;;;24.70;99.90;;;;;;5057689;28;20028;-90
2023/08/25 09:06:03;;;;;;;23.63;19.63;;;24.70;99.90;;;;;;5072251;28;20039;-90
2023/08/25 09:08:31;;;;;;;23.08;18.23;;;24.50;99.90;;;;;;5046621;28;20071;-91
2023/08/25 09:11:05;;;;;;;26.98;18.90;;;24.70;99.90;;;;;;5051552;28;20510;-90
2023/08/25 09:13:35;;;;;;;24.85;19.52;;;24.60;99.90;;;;;;5050505;28;20037;-89
2023/08/25 09:16:14;;;;;;;25.40;20.13;;;24.60;99.90;;;;;;5057649;28;20036;-89
2023/08/25 09:18:40;;;;;;;24.70;20.42;;;24.90;99.90;;;;;;5058111;28;20047;-89
2023/08/25 09:21:21;;;;;;;24.58;21.17;;;24.60;99.90;;;;;;5038458;28;20114;-91
2023/08/25 09:24:05;;;;;;;23.23;20.38;;;24.80;99.90;;;;;;5054418;28;20059;-89
2023/08/25 09:26:38;;;;;;;23.90;19.70;;;24.70;99.90;;;;;;5055815;28;20048;-90
2023/08/25 09:29:04;;;;;;;25.35;21.40;;;24.60;99.90;;;;;;5057314;28;20032;-90
2023/08/25 09:31:31;;;;;;;25.65;21.02;;;24.60;99.90;;;;;;5056471;28;20036;-89
2023/08/25 09:34:05;;;;;;;30.73;22.63;;;24.60;99.90;;;;;;5054735;28;20035;-89
2023/08/25 09:36:31;;;;;;;31.05;23.05;;;24.50;99.90;;;;;;5046187;28;20047;-90
2023/08/25 09:38:58;;;;;;;28.45;23.88;;;24.60;99.90;;;;;;5055352;28;20043;-90
2023/08/25 09:41:30;;;;;;;28.25;22.70;;;24.50;99.90;;;;;;5055731;28;20047;-88
2023/08/25 09:44:01;;;;;;;26.13;22.35;;;24.50;99.90;;;;;;5050670;28;20050;-88
2023/08/25 09:46:34;;;;;;;29.25;23.00;;;24.50;99.90;;;;;;5059183;28;20043;-89
2023/08/25 09:49:01;;;;;;;30.17;23.20;;;24.50;99.90;;;;;;5057416;28;20036;-88
2023/08/25 09:51:41;;;;;;;30.45;23.30;;;24.60;99.90;;;;;;5056870;28;20261;-89
2023/08/25 09:54:25;;;;;;;31.48;25.35;;;24.80;99.90;;;;;;5066030;28;20078;-89
2023/08/25 09:56:51;;;;;;;26.52;21.52;;;24.70;99.90;;;;;;5060741;28;20043;-90
2023/08/25 09:59:17;;;;;;;27.27;22.48;;;24.90;99.90;;;;;;5052114;28;20035;-90
2023/08/25 10:01:44;;;;;;;25.90;21.02;;;25.10;99.90;;;;;;5053579;28;20036;-89
2023/08/25 10:04:10;;;;;;;24.60;20.50;;;25.10;99.90;;;;;;5057100;28;20141;-88
2023/08/25 10:06:39;;;;;;;28.50;21.40;;;25.40;99.90;;;;;;5049495;28;20040;-88
2023/08/25 10:09:06;;;;;;;23.83;19.65;;;25.40;99.90;;;;;;5050532;28;20040;-89
2023/08/25 10:11:40;;;;;;;25.98;21.33;;;25.20;99.90;;;;;;5049447;28;20043;-90
2023/08/25 10:14:08;;;;;;;31.38;23.52;;;25.00;99.90;;;;;;5045292;28;20044;-89
2023/08/25 10:16:45;;;;;;;27.35;21.70;;;25.10;99.90;;;;;;5039415;28;20048;-89
2023/08/25 10:19:15;;;;;;;27.20;22.88;;;24.90;99.90;;;;;;5054557;28;20039;-88
2023/08/25 10:21:49;;;;;;;29.60;21.83;;;24.80;99.90;;;;;;5045032;28;20032;-89
2023/08/25 10:24:17;;;;;;;25.83;21.70;;;24.90;99.90;;;;;;5055007;28;20512;-89
2023/08/25 10:26:45;;;;;;;24.65;21.00;;;24.60;99.90;;;;;;5039002;28;20060;-89
2023/08/25 10:29:14;;;;;;;27.42;21.10;;;24.50;99.90;;;;;;5046229;28;20090;-90
2023/08/25 10:31:51;;;;;;;25.50;21.23;;;24.70;99.90;;;;;;5049219;28;20036;-89
2023/08/25 10:34:32;;;;;;;25.38;21.73;;;24.70;99.90;;;;;;5052842;28;20036;-89
2023/08/25 10:37:10;;;;;;;27.73;19.92;;;24.70;99.90;;;;;;5053706;28;20036;-89
2023/08/25 10:40:16;;;;;;;25.65;21.70;;;24.70;99.90;;;;;;5031491;28;20375;-89
2023/08/25 10:42:43;;;;;;;29.23;22.55;;;24.70;99.90;;;;;;5049492;28;20071;-89
2023/08/25 10:45:12;;;;;;;24.40;20.95;;;24.70;99.90;;;;;;5033419;28;20119;-89
2023/08/25 10:47:50;;;;;;;28.33;21.17;;;24.80;99.90;;;;;;5025423;28;20078;-89
2023/08/25 10:50:22;;;;;;;28.38;21.02;;;24.90;99.90;;;;;;5054999;28;20428;-89
2023/08/25 10:52:51;;;;;;;23.63;20.58;;;24.90;99.90;;;;;;5057651;28;20040;-89
2023/08/25 10:55:25;;;;;;;25.25;21.48;;;24.80;99.90;;;;;;5058272;28;20040;-89
2023/08/25 10:57:52;;;;;;;;;;;24.70;99.90;;;;;;5059695;28;20036;-89
2023/08/25 11:00:33;;;;;;;28.73;21.63;;;24.70;99.90;;;;;;5048247;28;19948;-88
2023/08/25 11:03:01;;;;;;;27.00;21.48;;;24.70;99.90;;;;;;5059602;28;20106;-90
2023/08/25 11:05:31;;;;;;;26.73;22.70;;;24.70;99.90;;;;;;5059563;28;20039;-89
2023/08/25 11:08:01;;;;;;;24.10;19.30;;;24.70;99.90;;;;;;5060704;28;20553;-88
2023/08/25 11:10:30;;;;;;;26.45;23.13;;;24.60;99.90;;;;;;5052732;28;20062;-89
2023/08/25 11:12:58;;;;;;;28.17;23.48;;;24.70;99.90;;;;;;5056401;28;20032;-89
2023/08/25 11:15:30;;;;;;;30.45;24.48;;;24.70;99.90;;;;;;5073020;28;20070;-90
2023/08/25 11:17:56;;;;;;;27.60;22.45;;;24.70;99.90;;;;;;5034183;28;20036;-90
2023/08/25 11:20:23;;;;;;;27.15;23.13;;;24.60;99.90;;;;;;5058813;28;20036;-90
2023/08/25 11:22:56;;;;;;;25.42;21.10;;;24.50;99.90;;;;;;5063858;28;20051;-91
2023/08/25 11:25:24;;;;;;;26.45;22.95;;;24.40;99.90;;;;;;5045189;28;20048;-92
2023/08/25 11:27:53;;;;;;;28.63;23.75;;;24.50;99.90;;;;;;5049889;28;20430;-93
2023/08/25 11:30:21;;;;;;;27.60;23.10;;;24.40;99.90;;;;;;5041038;28;20074;-92
2023/08/25 11:32:50;;;;;;;26.42;23.55;;;24.60;99.90;;;;;;5056624;28;20068;-89
2023/08/25 11:35:17;;;;;;;29.00;24.13;;;24.60;99.90;;;;;;5060452;28;20388;-91
2023/08/25 11:37:46;;;;;;;28.83;23.60;;;24.70;99.90;;;;;;5060062;28;20037;-89
2023/08/25 11:40:18;;;;;;;31.42;24.60;;;24.70;99.90;;;;;;5028121;28;20572;-91
2023/08/25 11:42:45;;;;;;;26.70;23.77;;;24.60;99.90;;;;;;5060115;28;20040;-91
2023/08/25 11:45:12;;;;;;;31.20;24.17;;;24.70;99.90;;;;;;5060139;28;20500;-91
2023/08/25 11:47:38;;;;;;;29.45;23.73;;;24.60;99.90;;;;;;5068559;28;20105;-90
2023/08/25 11:50:05;;;;;;;28.30;23.55;;;24.70;99.90;;;;;;5045494;28;20374;-91
2023/08/25 11:52:32;;;;;;;31.27;24.80;;;24.70;99.90;;;;;;5009987;28;20822;-91
2023/08/25 11:54:59;;;;;;;30.15;24.33;;;24.60;99.90;;;;;;5041686;28;20135;-91
2023/08/25 11:57:36;;;;;;;27.90;22.33;;;24.60;99.90;;;;;;5029616;28;20039;-90
2023/08/25 12:00:06;;;;;;;30.88;25.17;;;24.70;99.90;;;;;;5037113;28;20032;-91
2023/08/25 12:02:32;;;;;;;29.92;24.63;;;24.70;99.90;;;;;;5048874;28;20036;-90
2023/08/25 12:05:04;;;;;;;31.33;24.77;;;24.90;99.90;;;;;;5060696;28;20044;-91
2023/08/25 12:07:34;;;;;;;26.73;22.95;;;25.10;99.90;;;;;;5062045;28;20055;-91
2023/08/25 12:10:03;;;;;;;27.02;23.30;;;25.10;99.90;;;;;;5045686;28;20044;-90
2023/08/25 12:12:32;;;;;;;25.77;21.38;;;25.30;99.90;;;;;;5034192;28;20538;-92
2023/08/25 12:14:57;;;;;;;25.60;21.75;;;25.30;99.90;;;;;;5026211;28;20497;-92
2023/08/25 12:17:28;;;;;;;27.67;21.45;;;25.20;99.90;;;;;;5030976;28;20032;-92
2023/08/25 12:19:55;;;;;;;22.40;20.00;;;25.10;99.90;;;;;;5035144;28;20043;-91
2023/08/25 12:22:22;;;;;;;26.42;20.77;;;25.20;99.90;;;;;;5050952;28;20032;-91
2023/08/25 12:24:48;;;;;;;21.25;19.10;;;25.20;99.90;;;;;;5025213;28;20045;-91
2023/08/25 12:27:15;;;;;;;21.23;18.65;;;25.10;99.90;;;;;;5034549;28;20047;-92
2023/08/25 12:29:41;;;;;;;22.73;18.83;;;25.20;99.90;;;;;;5053596;28;20045;-92
2023/08/25 12:32:07;;;;;;;21.67;19.33;;;25.40;99.90;;;;;;5008553;28;20040;-91
2023/08/25 12:34:34;;;;;;;21.92;19.67;;;25.50;99.90;;;;;;5037136;28;20037;-92